createdAt,value
2023-05-12T00:00:52.021Z,71.40
2023-05-12T00:03:20.121Z,70.80
2023-05-12T00:05:48.206Z,70.40
2023-05-12T00:08:16.143Z,70.50
2023-05-12T00:10:44.202Z,71.00
2023-05-12T00:13:12.323Z,71.00
2023-05-12T00:15:40.499Z,71.00
2023-05-12T00:18:09.857Z,71.40
2023-05-12T00:20:37.895Z,71.60
2023-05-12T00:23:05.868Z,71.90
2023-05-12T00:25:33.888Z,71.90
2023-05-12T00:28:01.862Z,71.90
2023-05-12T00:30:29.862Z,72.20
2023-05-12T00:32:58.754Z,72.10
2023-05-12T00:35:28.256Z,72.70
2023-05-12T00:37:56.219Z,72.60
2023-05-12T00:40:24.206Z,72.70
2023-05-12T00:42:52.191Z,73.00
2023-05-12T00:45:20.598Z,73.20
2023-05-12T00:47:48.654Z,73.20
2023-05-12T00:50:16.955Z,73.30
2023-05-12T00:52:47.780Z,72.90
2023-05-12T00:55:16.252Z,73.60
2023-05-12T00:57:44.768Z,73.50
2023-05-12T01:00:14.071Z,73.40
2023-05-12T01:02:42.187Z,73.80
2023-05-12T01:05:11.120Z,74.00
2023-05-12T01:07:40.734Z,74.30
2023-05-12T01:10:20.190Z,74.60
2023-05-12T01:12:48.650Z,75.30
2023-05-12T01:15:16.862Z,75.70
2023-05-12T01:17:52.874Z,75.80
2023-05-12T01:20:24.620Z,75.50
2023-05-12T01:22:53.532Z,75.60
2023-05-12T01:25:25.018Z,75.90
2023-05-12T01:27:54.982Z,75.80
2023-05-12T01:30:24.070Z,76.00
2023-05-12T01:32:52.842Z,76.00
2023-05-12T01:35:20.920Z,76.30
2023-05-12T01:37:48.917Z,76.50
2023-05-12T01:40:18.095Z,76.40
2023-05-12T01:42:46.247Z,76.70
2023-05-12T01:45:15.618Z,76.80
2023-05-12T01:47:43.662Z,76.70
2023-05-12T01:50:12.088Z,77.50
2023-05-12T01:52:40.086Z,77.20
2023-05-12T01:55:09.159Z,77.40
2023-05-12T01:57:37.341Z,77.50
2023-05-12T02:00:06.416Z,77.90
2023-05-12T02:02:35.789Z,77.90
2023-05-12T02:05:03.811Z,77.80
2023-05-12T02:07:31.987Z,78.00
2023-05-12T02:09:59.937Z,78.30
2023-05-12T02:12:27.979Z,78.40
2023-05-12T02:14:56.208Z,78.70
2023-05-12T02:17:25.188Z,78.80
2023-05-12T02:19:54.647Z,78.90
2023-05-12T02:22:22.606Z,79.00
2023-05-12T02:24:50.601Z,79.10
2023-05-12T02:27:18.667Z,79.60
2023-05-12T02:29:46.830Z,80.00
2023-05-12T02:32:14.871Z,80.60
2023-05-12T02:34:42.852Z,80.70
2023-05-12T02:37:12.241Z,80.80
2023-05-12T02:39:40.348Z,81.30
2023-05-12T02:42:08.834Z,81.60
2023-05-12T02:44:36.809Z,81.60
2023-05-12T02:47:05.086Z,81.40
2023-05-12T02:49:33.151Z,81.80
2023-05-12T02:52:01.082Z,82.00
2023-05-12T02:54:30.401Z,82.30
2023-05-12T02:56:58.349Z,82.50
2023-05-12T02:59:26.449Z,82.50
2023-05-12T03:01:54.502Z,83.20
2023-05-12T03:04:22.509Z,82.90
2023-05-12T03:06:50.577Z,83.30
2023-05-12T03:09:18.578Z,83.20
2023-05-12T03:11:47.871Z,83.10
2023-05-12T03:14:15.916Z,83.00
2023-05-12T03:16:43.970Z,83.10
2023-05-12T03:19:12.104Z,83.50
2023-05-12T03:21:40.430Z,83.80
2023-05-12T03:24:08.785Z,83.90
2023-05-12T03:26:36.773Z,83.90
2023-05-12T03:29:06.111Z,83.80
2023-05-12T03:31:34.121Z,83.70
2023-05-12T03:34:02.123Z,83.60
2023-05-12T03:36:30.104Z,83.60
2023-05-12T03:38:58.116Z,83.60
2023-05-12T03:41:26.102Z,83.50
2023-05-12T03:43:54.102Z,83.50
2023-05-12T03:46:24.273Z,83.90
2023-05-12T03:48:52.408Z,83.30
2023-05-12T03:51:20.618Z,83.50
2023-05-12T03:53:48.621Z,83.90
2023-05-12T03:56:17.028Z,83.90
2023-05-12T03:58:46.537Z,83.90
2023-05-12T04:01:14.683Z,83.30
2023-05-12T04:03:44.085Z,83.30
2023-05-12T04:06:12.201Z,82.80
2023-05-12T04:08:42.013Z,83.00
2023-05-12T04:11:10.744Z,82.50
2023-05-12T04:13:38.877Z,82.90
2023-05-12T04:16:07.236Z,83.00
2023-05-12T04:18:35.918Z,83.70
2023-05-12T04:21:05.575Z,83.70
2023-05-12T04:23:33.568Z,84.20
2023-05-12T04:26:05.205Z,84.00
2023-05-12T04:28:33.265Z,83.70
2023-05-12T04:31:04.652Z,83.50
2023-05-12T04:33:32.829Z,83.60
2023-05-12T04:36:00.936Z,83.60
2023-05-12T04:38:30.296Z,83.60
2023-05-12T04:41:00.031Z,83.40
2023-05-12T04:46:00.376Z,83.20
2023-05-12T04:48:29.062Z,83.30
2023-05-12T04:50:59.467Z,83.30
2023-05-12T04:53:27.540Z,83.10
2023-05-12T04:55:56.877Z,82.90
2023-05-12T04:58:24.843Z,82.60
2023-05-12T05:00:53.020Z,81.90
2023-05-12T05:03:21.570Z,81.80
2023-05-12T05:05:50.024Z,81.50
2023-05-12T05:08:18.482Z,81.40
2023-05-12T05:10:46.707Z,81.00
2023-05-12T05:13:16.506Z,80.80
2023-05-12T05:15:51.310Z,80.90
2023-05-12T05:18:21.703Z,80.50
2023-05-12T05:20:57.817Z,80.00
2023-05-12T05:23:26.915Z,80.00
2023-05-12T05:25:54.897Z,79.60
2023-05-12T05:28:24.260Z,79.50
2023-05-12T05:30:52.739Z,79.40
2023-05-12T05:33:21.318Z,79.20
2023-05-12T05:35:49.594Z,79.30
2023-05-12T05:38:17.921Z,79.30
2023-05-12T05:40:52.982Z,79.10
2023-05-12T05:43:24.016Z,78.80
2023-05-12T05:45:53.135Z,78.50
2023-05-12T05:48:21.840Z,78.40
2023-05-12T05:50:50.161Z,78.20
2023-05-12T05:53:19.557Z,78.00
2023-05-12T05:55:48.638Z,78.20
2023-05-12T05:58:16.922Z,78.10
2023-05-12T06:00:46.492Z,77.60
2023-05-12T06:03:16.636Z,77.60
2023-05-12T06:05:44.846Z,77.50
2023-05-12T06:08:13.775Z,77.20
2023-05-12T06:10:42.148Z,77.00
2023-05-12T06:13:10.238Z,76.70
2023-05-12T06:15:38.536Z,76.60
2023-05-12T06:18:08.130Z,76.40
2023-05-12T06:20:36.225Z,76.00
2023-05-12T06:23:04.225Z,75.50
2023-05-12T06:25:33.270Z,75.20
2023-05-12T06:28:01.235Z,74.60
2023-05-12T06:30:29.309Z,74.40
2023-05-12T06:32:57.438Z,74.20
2023-05-12T06:35:26.955Z,74.10
2023-05-12T06:37:54.907Z,74.10
2023-05-12T06:40:22.920Z,73.60
2023-05-12T06:42:50.964Z,73.40
2023-05-12T06:45:19.209Z,72.90
2023-05-12T06:47:47.700Z,73.50
2023-05-12T06:50:17.041Z,72.80
2023-05-12T06:52:46.904Z,72.30
2023-05-12T06:55:19.890Z,72.10
2023-05-12T06:57:48.202Z,71.10
2023-05-12T07:00:17.143Z,70.60
2023-05-12T07:02:45.300Z,70.30
2023-05-12T07:05:13.470Z,70.10
2023-05-12T07:07:41.559Z,70.00
2023-05-12T07:10:11.686Z,69.70
2023-05-12T07:12:39.787Z,69.40
2023-05-12T07:15:11.025Z,69.50
2023-05-12T07:17:39.133Z,69.20
2023-05-12T07:20:08.859Z,69.00
2023-05-12T07:22:38.816Z,68.70
2023-05-12T07:25:08.061Z,68.30
2023-05-12T07:27:37.584Z,67.40
2023-05-12T07:30:06.807Z,67.10
2023-05-12T07:32:35.296Z,67.00
2023-05-12T07:35:03.677Z,66.30
2023-05-12T07:37:31.830Z,66.30
2023-05-12T07:39:59.918Z,66.20
2023-05-12T07:42:28.003Z,65.80
2023-05-12T07:44:57.388Z,65.30
2023-05-12T07:47:25.436Z,64.70
2023-05-12T07:49:53.531Z,64.20
2023-05-12T07:52:21.512Z,63.70
2023-05-12T07:54:49.626Z,64.00
2023-05-12T07:57:17.764Z,63.50
2023-05-12T07:59:45.969Z,58.70
2023-05-12T08:02:17.227Z,51.90
2023-05-12T08:04:45.396Z,46.60
2023-05-12T08:07:13.479Z,43.70
2023-05-12T08:09:41.437Z,43.90
2023-05-12T08:12:09.952Z,42.90
2023-05-12T08:14:38.406Z,41.20
2023-05-12T08:17:06.851Z,38.80
2023-05-12T08:19:36.274Z,37.50
2023-05-12T08:22:04.441Z,37.10
2023-05-12T08:24:32.512Z,36.40
2023-05-12T08:27:00.555Z,35.00
2023-05-12T08:29:28.657Z,35.60
2023-05-12T08:31:57.431Z,34.50
2023-05-12T08:34:25.699Z,33.20
2023-05-12T08:36:55.436Z,32.60
2023-05-12T08:39:23.728Z,32.60
2023-05-12T08:41:57.922Z,32.30
2023-05-12T08:44:27.222Z,32.10
2023-05-12T08:46:58.158Z,33.30
2023-05-12T08:49:28.220Z,30.80
2023-05-12T08:54:56.999Z,30.40
2023-05-12T08:57:31.497Z,30.90
2023-05-12T09:00:00.337Z,29.70
2023-05-12T09:02:38.045Z,28.90
2023-05-12T09:05:10.062Z,27.60
2023-05-12T09:07:44.931Z,27.50
2023-05-12T09:10:29.920Z,27.20
2023-05-12T09:13:05.057Z,28.30
2023-05-12T09:15:37.398Z,26.20
2023-05-12T09:18:05.889Z,27.70
2023-05-12T09:20:34.784Z,27.30
2023-05-12T09:23:15.218Z,25.20
2023-05-12T09:25:43.241Z,23.90
2023-05-12T09:28:11.537Z,27.60
2023-05-12T09:30:42.460Z,32.80
2023-05-12T09:33:12.836Z,34.80
2023-05-12T09:35:42.540Z,29.20
2023-05-12T09:38:11.783Z,29.90
2023-05-12T09:40:43.134Z,33.50
2023-05-12T09:43:14.379Z,35.40
2023-05-12T09:45:44.229Z,34.90
2023-05-12T09:48:14.211Z,33.50
2023-05-12T09:50:47.623Z,28.60
2023-05-12T09:53:17.385Z,29.40
2023-05-12T09:55:48.074Z,32.10
2023-05-12T09:58:17.633Z,33.60
2023-05-12T10:03:18.737Z,27.80
2023-05-12T10:05:50.454Z,27.80
2023-05-12T10:08:54.150Z,26.60
2023-05-12T10:11:24.002Z,26.90
2023-05-12T10:13:53.133Z,28.90
2023-05-12T10:16:22.187Z,26.30
2023-05-12T10:18:51.729Z,23.80
2023-05-12T10:21:23.086Z,23.50
2023-05-12T10:23:58.308Z,23.20
2023-05-12T10:26:27.830Z,25.00
2023-05-12T10:28:56.120Z,25.70
2023-05-12T10:31:24.968Z,26.70
2023-05-12T10:33:59.627Z,30.00
2023-05-12T10:36:28.027Z,31.70
2023-05-12T10:38:56.559Z,33.30
2023-05-12T10:41:33.132Z,35.10
2023-05-12T10:44:01.381Z,36.70
2023-05-12T10:46:30.739Z,37.20
2023-05-12T10:49:02.396Z,37.20
2023-05-12T10:51:33.085Z,37.70
2023-05-12T10:54:02.503Z,37.90
2023-05-12T10:56:41.633Z,38.20
2023-05-12T10:59:19.051Z,38.90
2023-05-12T11:02:02.552Z,39.70
2023-05-12T11:04:43.162Z,40.00
2023-05-12T11:07:14.301Z,40.10
2023-05-12T11:09:56.836Z,40.70
2023-05-12T11:12:28.715Z,40.60
2023-05-12T11:14:56.858Z,41.00
2023-05-12T11:17:25.587Z,41.00
2023-05-12T11:19:54.793Z,41.20
2023-05-12T11:22:24.177Z,41.70
2023-05-12T11:24:53.532Z,41.70
2023-05-12T11:27:23.968Z,41.90
2023-05-12T11:30:00.318Z,41.90
2023-05-12T11:32:29.700Z,41.70
2023-05-12T11:35:09.998Z,41.60
2023-05-12T11:37:39.055Z,42.80
2023-05-12T11:40:18.089Z,42.80
2023-05-12T11:42:48.798Z,42.40
2023-05-12T11:45:29.248Z,42.40
2023-05-12T11:48:08.898Z,43.00
2023-05-12T11:50:39.983Z,43.00
2023-05-12T11:53:12.318Z,42.20
2023-05-12T11:55:49.274Z,40.60
2023-05-12T11:58:21.970Z,40.20
2023-05-12T12:00:51.610Z,40.10
2023-05-12T12:03:19.775Z,40.10
2023-05-12T12:06:02.239Z,41.40
2023-05-12T12:08:30.520Z,43.10
2023-05-12T12:10:58.940Z,42.40
2023-05-12T12:13:27.735Z,42.30
2023-05-12T12:15:57.216Z,42.20
2023-05-12T12:18:25.322Z,42.10
2023-05-12T12:20:53.386Z,42.40
2023-05-12T12:23:21.444Z,42.60
2023-05-12T12:25:49.399Z,42.50
2023-05-12T12:28:17.423Z,41.80
2023-05-12T12:30:45.461Z,41.60
2023-05-12T12:33:14.964Z,41.80
2023-05-12T12:35:43.215Z,42.00
2023-05-12T12:38:11.317Z,42.50
2023-05-12T12:40:39.279Z,43.00
2023-05-12T12:43:07.445Z,41.60
2023-05-12T12:45:35.508Z,42.20
2023-05-12T12:48:03.893Z,43.50
2023-05-12T12:50:33.660Z,44.10
2023-05-12T12:53:01.730Z,43.80
2023-05-12T12:55:29.890Z,43.60
2023-05-12T12:57:57.972Z,43.00
2023-05-12T13:00:26.951Z,41.80
2023-05-12T13:02:55.076Z,41.70
2023-05-12T13:05:23.549Z,42.00
2023-05-12T13:07:53.014Z,42.10
2023-05-12T13:10:21.103Z,42.00
2023-05-12T13:12:49.135Z,42.10
2023-05-12T13:15:19.237Z,41.80
2023-05-12T13:17:47.593Z,41.60
2023-05-12T13:20:16.501Z,41.30
2023-05-12T13:22:45.598Z,41.00
2023-05-12T13:25:14.921Z,41.40
2023-05-12T13:27:43.039Z,41.30
2023-05-12T13:30:13.541Z,41.50
2023-05-12T13:32:42.012Z,41.80
2023-05-12T13:35:10.826Z,41.70
2023-05-12T13:37:38.844Z,42.00
2023-05-12T13:40:08.260Z,41.80
2023-05-12T13:42:37.853Z,41.70
2023-05-12T13:45:06.864Z,41.90
2023-05-12T13:47:35.132Z,42.20
2023-05-12T13:50:03.229Z,42.50
2023-05-12T13:52:31.176Z,42.90
2023-05-12T13:54:59.182Z,43.60
2023-05-12T13:57:27.140Z,43.90
2023-05-12T13:59:57.829Z,44.20
2023-05-12T14:02:25.916Z,44.30
2023-05-12T14:04:54.034Z,43.80
2023-05-12T14:07:22.059Z,43.90
2023-05-12T14:09:50.023Z,43.80
2023-05-12T14:12:17.997Z,43.40
2023-05-12T14:14:49.851Z,44.20
2023-05-12T14:17:19.561Z,44.50
2023-05-12T14:19:47.614Z,44.20
2023-05-12T14:22:25.275Z,43.50
2023-05-12T14:24:55.694Z,43.50
2023-05-12T14:27:23.862Z,43.30
2023-05-12T14:29:51.969Z,42.70
2023-05-12T14:32:21.367Z,43.30
2023-05-12T14:34:49.332Z,43.10
2023-05-12T14:37:17.459Z,43.00
2023-05-12T14:39:45.429Z,43.50
2023-05-12T14:42:13.402Z,44.00
2023-05-12T14:44:41.410Z,44.70
2023-05-12T14:47:09.417Z,45.00
2023-05-12T14:49:38.775Z,45.10
2023-05-12T14:52:07.293Z,44.80
2023-05-12T14:54:35.408Z,45.00
2023-05-12T14:57:03.670Z,45.20
2023-05-12T14:59:31.856Z,45.00
2023-05-12T15:01:59.876Z,45.00
2023-05-12T15:04:28.210Z,45.20
2023-05-12T15:06:57.591Z,45.10
2023-05-12T15:09:25.569Z,44.80
2023-05-12T15:11:53.532Z,45.00
2023-05-12T15:14:21.842Z,44.60
2023-05-12T15:16:49.893Z,44.50
2023-05-12T15:19:20.710Z,44.10
2023-05-12T15:21:48.842Z,44.10
2023-05-12T15:24:18.232Z,43.80
2023-05-12T15:26:46.291Z,43.50
2023-05-12T15:29:14.710Z,44.10
2023-05-12T15:31:42.767Z,45.00
2023-05-12T15:34:11.125Z,44.80
2023-05-12T15:36:39.057Z,45.00
2023-05-12T15:39:07.101Z,44.70
2023-05-12T15:41:36.471Z,44.50
2023-05-12T15:44:04.498Z,44.50
2023-05-12T15:46:32.501Z,44.70
2023-05-12T15:49:00.572Z,45.00
2023-05-12T15:51:29.879Z,45.10
2023-05-12T15:53:58.044Z,45.10
2023-05-12T15:56:26.173Z,45.00
2023-05-12T15:58:56.758Z,45.00
2023-05-12T16:01:25.033Z,45.10
2023-05-12T16:03:54.564Z,45.10
2023-05-12T16:06:22.894Z,45.00
2023-05-12T16:08:50.853Z,45.00
2023-05-12T16:11:19.246Z,45.00
2023-05-12T16:13:47.254Z,45.20
2023-05-12T16:16:16.737Z,45.20
2023-05-12T16:18:44.814Z,45.20
2023-05-12T16:21:12.814Z,45.40
2023-05-12T16:23:40.770Z,45.60
2023-05-12T16:26:08.965Z,45.70
2023-05-12T16:28:36.987Z,45.60
2023-05-12T16:31:05.134Z,45.50
2023-05-12T16:33:34.541Z,45.50
2023-05-12T16:36:02.587Z,45.50
2023-05-12T16:38:32.390Z,45.30
2023-05-12T16:41:01.640Z,45.10
2023-05-12T16:43:29.625Z,45.20
2023-05-12T16:46:02.081Z,45.10
2023-05-12T16:48:34.285Z,45.30
2023-05-12T16:51:05.703Z,45.40
2023-05-12T16:53:33.826Z,45.60
2023-05-12T16:56:01.910Z,45.80
2023-05-12T16:58:32.175Z,46.10
2023-05-12T17:01:00.878Z,46.10
2023-05-12T17:03:29.295Z,46.40
2023-05-12T17:05:57.442Z,46.60
2023-05-12T17:08:26.860Z,46.70
2023-05-12T17:10:54.851Z,46.90
2023-05-12T17:13:23.221Z,47.00
2023-05-12T17:15:52.551Z,47.20
2023-05-12T17:18:20.574Z,47.50
2023-05-12T17:20:48.548Z,47.80
2023-05-12T17:23:16.683Z,48.00
2023-05-12T17:25:46.010Z,48.00
2023-05-12T17:28:14.327Z,48.00
2023-05-12T17:30:43.049Z,48.10
2023-05-12T17:33:11.498Z,48.40
2023-05-12T17:35:39.643Z,48.60
2023-05-12T17:38:07.901Z,48.60
2023-05-12T17:40:36.023Z,48.80
2023-05-12T17:43:05.408Z,49.00
2023-05-12T17:45:33.631Z,49.10
2023-05-12T17:48:01.869Z,49.20
2023-05-12T17:50:29.858Z,49.40
2023-05-12T17:52:58.089Z,49.70
2023-05-12T17:55:26.042Z,49.90
2023-05-12T17:57:54.657Z,50.10
2023-05-12T18:00:24.977Z,50.30
2023-05-12T18:02:53.114Z,50.60
2023-05-12T18:05:21.647Z,51.00
2023-05-12T18:07:50.214Z,51.10
2023-05-12T18:10:18.632Z,51.30
2023-05-12T18:12:46.956Z,51.40
2023-05-12T18:15:16.936Z,51.70
2023-05-12T18:17:46.481Z,51.80
2023-05-12T18:20:14.673Z,51.90
2023-05-12T18:22:42.665Z,52.10
2023-05-12T18:25:12.920Z,52.30
2023-05-12T18:27:41.067Z,52.50
2023-05-12T18:30:09.756Z,52.60
2023-05-12T18:32:38.112Z,52.60
2023-05-12T18:35:09.466Z,52.80
2023-05-12T18:37:37.413Z,52.80
2023-05-12T18:40:05.937Z,53.00
2023-05-12T18:42:34.937Z,52.90
2023-05-12T18:45:02.951Z,52.80
2023-05-12T18:47:31.035Z,52.90
2023-05-12T18:49:59.165Z,53.10
2023-05-12T18:52:28.513Z,53.90
2023-05-12T18:54:56.525Z,53.30
2023-05-12T18:57:24.552Z,53.30
2023-05-12T18:59:52.584Z,53.40
2023-05-12T19:02:20.813Z,53.60
2023-05-12T19:04:48.896Z,53.70
2023-05-12T19:07:17.157Z,54.00
2023-05-12T19:09:46.849Z,54.00
2023-05-12T19:12:15.059Z,54.10
2023-05-12T19:14:43.191Z,54.20
2023-05-12T19:17:11.865Z,54.30
2023-05-12T19:19:39.892Z,54.40
2023-05-12T19:22:07.829Z,54.60
2023-05-12T19:24:37.974Z,54.60
2023-05-12T19:27:07.595Z,54.80
2023-05-12T19:29:35.552Z,54.90
2023-05-12T19:32:03.678Z,55.00
2023-05-12T19:34:31.775Z,55.00
2023-05-12T19:37:00.855Z,55.20
2023-05-12T19:39:28.974Z,55.30
2023-05-12T19:41:56.951Z,55.50
2023-05-12T19:44:27.010Z,55.60
2023-05-12T19:46:58.781Z,55.80
2023-05-12T19:49:26.905Z,55.80
2023-05-12T19:51:54.886Z,55.90
2023-05-12T19:54:22.856Z,56.00
2023-05-12T19:56:50.835Z,56.00
2023-05-12T19:59:19.228Z,56.10
2023-05-12T20:01:49.331Z,56.80
2023-05-12T20:04:17.359Z,56.30
2023-05-12T20:06:45.570Z,56.50
2023-05-12T20:09:13.600Z,56.50
2023-05-12T20:11:42.065Z,56.60
2023-05-12T20:14:10.031Z,56.60
2023-05-12T20:16:38.359Z,56.60
2023-05-12T20:19:07.881Z,56.70
2023-05-12T20:21:36.012Z,56.80
2023-05-12T20:24:04.069Z,57.00
2023-05-12T20:26:32.055Z,57.20
2023-05-12T20:29:00.965Z,57.40
2023-05-12T20:31:28.963Z,57.50
2023-05-12T20:33:57.856Z,57.40
2023-05-12T20:36:27.248Z,57.40
2023-05-12T20:38:55.179Z,57.70
2023-05-12T20:41:23.142Z,58.00
2023-05-12T20:43:51.106Z,58.00
2023-05-12T20:46:19.344Z,58.10
2023-05-12T20:48:47.401Z,58.20
2023-05-12T20:51:15.788Z,58.30
2023-05-12T20:53:45.166Z,58.30
2023-05-12T20:56:13.286Z,58.10
2023-05-12T20:58:41.342Z,58.20
2023-05-12T21:01:09.474Z,59.00
2023-05-12T21:03:37.580Z,58.50
2023-05-12T21:06:06.906Z,58.60
2023-05-12T21:08:34.921Z,58.60
2023-05-12T21:11:04.753Z,58.60
2023-05-12T21:13:32.664Z,58.70
2023-05-12T21:16:00.710Z,58.70
2023-05-12T21:18:28.733Z,58.60
2023-05-12T21:20:56.689Z,58.80
2023-05-12T21:23:24.760Z,58.80
2023-05-12T21:25:54.035Z,58.90
2023-05-12T21:28:23.369Z,58.90
2023-05-12T21:30:51.373Z,59.00
2023-05-12T21:33:19.358Z,58.90
2023-05-12T21:35:47.397Z,59.10
2023-05-12T21:38:15.380Z,59.10
2023-05-12T21:40:43.655Z,59.20
2023-05-12T21:43:11.658Z,59.00
2023-05-12T21:45:41.024Z,59.10
2023-05-12T21:48:09.104Z,59.10
2023-05-12T21:50:37.191Z,59.20
2023-05-12T21:53:05.210Z,59.30
2023-05-12T21:55:33.157Z,59.20
2023-05-12T21:58:01.133Z,59.20
2023-05-12T22:00:29.121Z,59.10
2023-05-12T22:02:58.523Z,59.10
2023-05-12T22:05:26.721Z,59.00
2023-05-12T22:07:54.613Z,59.00
2023-05-12T22:10:22.748Z,59.20
2023-05-12T22:12:50.823Z,59.20
2023-05-12T22:15:18.894Z,59.50
2023-05-12T22:17:47.725Z,59.40
2023-05-12T22:20:18.421Z,59.50
2023-05-12T22:22:46.518Z,59.70
2023-05-12T22:25:14.486Z,59.70
2023-05-12T22:27:42.476Z,59.60
2023-05-12T22:30:11.915Z,59.70
2023-05-12T22:32:39.888Z,59.80
2023-05-12T22:35:08.997Z,60.00
2023-05-12T22:37:38.461Z,60.20
2023-05-12T22:40:07.970Z,60.30
2023-05-12T22:42:35.973Z,60.40
2023-05-12T22:45:04.850Z,60.60
2023-05-12T22:47:33.333Z,60.50
2023-05-12T22:50:01.731Z,60.50
2023-05-12T22:52:29.762Z,60.50
2023-05-12T22:54:59.049Z,60.80
2023-05-12T22:57:27.025Z,61.00
2023-05-12T22:59:55.085Z,61.00
2023-05-12T23:02:23.120Z,61.20
2023-05-12T23:04:51.089Z,61.20
2023-05-12T23:07:19.119Z,61.30
2023-05-12T23:09:47.078Z,61.40
2023-05-12T23:12:16.373Z,61.70
2023-05-12T23:14:44.359Z,61.90
2023-05-12T23:17:12.356Z,62.10
2023-05-12T23:19:40.899Z,62.10
2023-05-12T23:22:08.844Z,62.00
2023-05-12T23:24:37.373Z,62.00
2023-05-12T23:27:05.881Z,62.40
2023-05-12T23:29:35.228Z,62.80
2023-05-12T23:32:03.270Z,63.30
2023-05-12T23:34:31.775Z,63.80
2023-05-12T23:36:59.722Z,63.90
2023-05-12T23:39:27.710Z,64.00
2023-05-12T23:41:55.667Z,63.90
2023-05-12T23:44:23.619Z,64.90
2023-05-12T23:46:53.042Z,64.60
2023-05-12T23:49:20.993Z,64.50
2023-05-12T23:51:49.034Z,64.60
2023-05-12T23:54:16.998Z,64.60
2023-05-12T23:56:44.940Z,65.20
2023-05-12T23:59:12.884Z,65.00
